createdAt,value
2023-10-28T00:01:07.373Z,17.05
2023-10-28T00:03:34.415Z,16.98
2023-10-28T00:06:02.348Z,14.32
2023-10-28T00:08:29.546Z,19.02
2023-10-28T00:10:56.770Z,15.57
2023-10-28T00:13:23.784Z,15.43
2023-10-28T00:15:50.638Z,19.00
2023-10-28T00:18:17.454Z,16.10
2023-10-28T00:20:45.969Z,17.75
2023-10-28T00:23:15.471Z,16.95
2023-10-28T00:25:43.144Z,19.83
2023-10-28T00:28:10.644Z,21.25
2023-10-28T00:30:41.534Z,16.90
2023-10-28T00:33:08.462Z,19.17
2023-10-28T00:35:35.505Z,16.33
2023-10-28T00:38:02.350Z,16.55
2023-10-28T00:40:31.065Z,16.08
2023-10-28T00:43:00.268Z,14.40
2023-10-28T00:45:28.756Z,15.15
2023-10-28T00:47:57.678Z,19.15
2023-10-28T00:50:24.895Z,17.35
2023-10-28T00:52:55.387Z,18.38
2023-10-28T00:55:24.279Z,16.48
2023-10-28T00:57:52.300Z,13.25
2023-10-28T01:00:19.539Z,15.32
2023-10-28T01:02:46.691Z,16.25
2023-10-28T01:05:15.025Z,16.20
2023-10-28T01:07:50.309Z,12.63
2023-10-28T01:10:28.649Z,13.73
2023-10-28T01:12:55.977Z,13.32
2023-10-28T01:15:23.928Z,14.45
2023-10-28T01:17:50.887Z,13.55
2023-10-28T01:20:18.061Z,15.43
2023-10-28T01:22:45.226Z,13.30
2023-10-28T01:25:12.642Z,15.93
2023-10-28T01:27:39.671Z,11.35
2023-10-28T01:30:14.878Z,12.85
2023-10-28T01:32:43.559Z,11.82
2023-10-28T01:35:14.309Z,12.27
2023-10-28T01:37:41.877Z,11.38
2023-10-28T01:40:16.050Z,13.57
2023-10-28T01:42:45.566Z,12.00
2023-10-28T01:45:13.263Z,9.93
2023-10-28T01:47:42.660Z,11.38
2023-10-28T01:50:12.664Z,15.18
2023-10-28T01:52:41.203Z,12.88
2023-10-28T01:55:12.646Z,14.43
2023-10-28T01:57:40.297Z,11.73
2023-10-28T02:00:13.644Z,14.40
2023-10-28T02:02:41.152Z,12.00
2023-10-28T02:05:09.516Z,11.23
2023-10-28T02:07:37.035Z,14.02
2023-10-28T02:10:06.322Z,10.77
2023-10-28T02:12:35.697Z,17.48
2023-10-28T02:15:07.828Z,15.75
2023-10-28T02:17:36.787Z,12.60
2023-10-28T02:20:04.865Z,12.43
2023-10-28T02:22:35.363Z,10.65
2023-10-28T02:25:02.272Z,15.88
2023-10-28T02:27:29.092Z,15.02
2023-10-28T02:29:55.935Z,14.90
2023-10-28T02:32:22.929Z,10.65
2023-10-28T02:34:49.926Z,11.93
2023-10-28T02:37:17.103Z,17.10
2023-10-28T02:39:44.145Z,11.80
2023-10-28T02:42:11.044Z,11.63
2023-10-28T02:44:37.974Z,13.55
2023-10-28T02:47:05.272Z,12.93
2023-10-28T02:49:32.334Z,12.32
2023-10-28T02:51:59.317Z,11.48
2023-10-28T02:54:26.214Z,11.68
2023-10-28T02:56:53.149Z,11.82
2023-10-28T02:59:20.708Z,18.98
2023-10-28T03:01:47.630Z,17.08
2023-10-28T03:04:14.692Z,14.25
2023-10-28T03:06:41.574Z,12.85
2023-10-28T03:09:08.522Z,15.18
2023-10-28T03:11:35.351Z,12.43
2023-10-28T03:14:02.309Z,11.75
2023-10-28T03:16:29.335Z,13.70
2023-10-28T03:18:57.576Z,16.42
2023-10-28T03:21:25.147Z,18.23
2023-10-28T03:23:52.197Z,11.80
2023-10-28T03:26:19.056Z,16.55
2023-10-28T03:28:45.975Z,13.38
2023-10-28T03:31:13.777Z,16.45
2023-10-28T03:33:41.453Z,14.02
2023-10-28T03:36:10.585Z,12.50
2023-10-28T03:38:39.396Z,18.40
2023-10-28T03:41:07.855Z,12.95
2023-10-28T03:43:34.761Z,15.48
2023-10-28T03:46:01.777Z,15.02
2023-10-28T03:48:29.794Z,15.43
2023-10-28T03:51:02.335Z,12.52
2023-10-28T03:53:29.302Z,13.82
2023-10-28T03:55:56.486Z,23.30
2023-10-28T03:58:23.838Z,15.88
2023-10-28T04:00:54.610Z,14.88
2023-10-28T04:03:22.680Z,16.00
2023-10-28T04:05:50.308Z,15.25
2023-10-28T04:08:17.450Z,13.10
2023-10-28T04:10:44.349Z,19.10
2023-10-28T04:13:14.294Z,17.33
2023-10-28T04:15:42.299Z,16.73
2023-10-28T04:18:09.410Z,16.70
2023-10-28T04:20:37.007Z,14.00
2023-10-28T04:23:04.400Z,15.10
2023-10-28T04:25:31.299Z,15.07
2023-10-28T04:31:45.974Z,15.60
2023-10-28T04:34:12.958Z,13.73
2023-10-28T04:36:39.739Z,14.85
2023-10-28T04:39:06.565Z,13.18
2023-10-28T04:41:33.532Z,16.67
2023-10-28T04:44:02.740Z,15.98
2023-10-28T04:46:31.134Z,13.45
2023-10-28T04:48:58.254Z,13.13
2023-10-28T04:51:25.748Z,14.88
2023-10-28T04:53:53.009Z,14.85
2023-10-28T04:56:19.945Z,12.13
2023-10-28T04:58:46.865Z,13.18
2023-10-28T05:01:13.781Z,28.88
2023-10-28T05:03:40.689Z,15.77
2023-10-28T05:06:11.030Z,15.80
2023-10-28T05:08:38.226Z,16.27
2023-10-28T05:11:05.711Z,17.30
2023-10-28T05:13:32.660Z,16.95
2023-10-28T05:16:00.041Z,17.48
2023-10-28T05:18:27.371Z,12.73
2023-10-28T05:20:54.476Z,20.33
2023-10-28T05:23:21.376Z,16.13
2023-10-28T05:25:48.245Z,19.60
2023-10-28T05:28:15.109Z,15.00
2023-10-28T05:30:41.894Z,13.68
2023-10-28T05:33:08.823Z,12.90
2023-10-28T05:35:35.660Z,14.27
2023-10-28T05:38:02.516Z,17.55
2023-10-28T05:40:29.393Z,22.15
2023-10-28T05:42:56.378Z,18.13
2023-10-28T05:45:23.258Z,16.20
2023-10-28T05:47:50.085Z,13.43
2023-10-28T05:50:19.120Z,21.67
2023-10-28T05:52:46.152Z,19.15
2023-10-28T05:55:14.096Z,19.80
2023-10-28T05:57:41.647Z,17.10
2023-10-28T06:00:12.361Z,20.77
2023-10-28T06:02:40.136Z,24.88
2023-10-28T06:05:10.170Z,19.55
2023-10-28T06:07:37.111Z,19.38
2023-10-28T06:10:06.086Z,18.08
2023-10-28T06:12:33.019Z,21.00
2023-10-28T06:14:59.856Z,17.05
2023-10-28T06:17:26.741Z,15.18
2023-10-28T06:19:53.718Z,19.05
2023-10-28T06:22:20.545Z,20.42
2023-10-28T06:24:47.365Z,17.45
2023-10-28T06:27:14.184Z,18.27
2023-10-28T06:29:41.002Z,17.58
2023-10-28T06:32:08.466Z,18.65
2023-10-28T06:34:35.458Z,20.85
2023-10-28T06:37:02.343Z,16.33
2023-10-28T06:39:29.202Z,21.85
2023-10-28T06:41:56.044Z,18.42
2023-10-28T06:44:23.895Z,21.25
2023-10-28T06:46:50.849Z,19.13
2023-10-28T06:49:17.696Z,22.63
2023-10-28T06:51:45.059Z,18.42
2023-10-28T06:54:11.939Z,20.52
2023-10-28T06:56:38.744Z,20.85
2023-10-28T06:59:05.615Z,19.33
2023-10-28T07:01:34.018Z,18.02
2023-10-28T07:04:02.412Z,17.85
2023-10-28T07:06:29.377Z,14.75
2023-10-28T07:08:56.201Z,20.33
2023-10-28T07:11:23.555Z,24.33
2023-10-28T07:13:50.450Z,23.75
2023-10-28T07:16:20.439Z,21.73
2023-10-28T07:18:47.383Z,22.23
2023-10-28T07:21:14.951Z,27.20
2023-10-28T07:23:42.210Z,26.50
2023-10-28T07:26:09.298Z,22.00
2023-10-28T07:28:38.531Z,18.05
2023-10-28T07:31:07.223Z,23.92
2023-10-28T07:33:35.004Z,21.67
2023-10-28T07:36:05.651Z,28.58
2023-10-28T07:38:33.196Z,24.67
2023-10-28T07:41:00.323Z,20.02
2023-10-28T07:43:27.952Z,24.08
2023-10-28T07:45:54.797Z,22.75
2023-10-28T07:48:22.096Z,23.10
2023-10-28T07:50:49.765Z,26.50
2023-10-28T07:53:18.242Z,23.80
2023-10-28T07:55:45.209Z,21.15
2023-10-28T07:58:12.220Z,30.45
2023-10-28T08:00:39.247Z,23.88
2023-10-28T08:03:06.248Z,24.95
2023-10-28T08:05:33.210Z,23.02
2023-10-28T08:08:00.813Z,28.25
2023-10-28T08:10:27.750Z,24.25
2023-10-28T08:12:59.616Z,29.77
2023-10-28T08:15:26.816Z,27.77
2023-10-28T08:17:53.917Z,28.13
2023-10-28T08:20:20.846Z,26.77
2023-10-28T08:22:47.962Z,31.55
2023-10-28T08:25:17.208Z,28.02
2023-10-28T08:27:45.723Z,32.70
2023-10-28T08:30:18.512Z,24.73
2023-10-28T08:32:45.894Z,29.05
2023-10-28T08:35:12.812Z,28.92
2023-10-28T08:37:40.059Z,30.55
2023-10-28T08:40:11.899Z,34.80
2023-10-28T08:42:39.629Z,29.08
2023-10-28T08:45:10.035Z,39.35
2023-10-28T08:47:40.070Z,28.88
2023-10-28T08:50:10.434Z,31.17
2023-10-28T08:52:38.699Z,37.88
2023-10-28T08:55:06.308Z,31.27
2023-10-28T08:57:36.552Z,31.58
2023-10-28T09:00:12.847Z,35.47
2023-10-28T09:02:43.145Z,30.88
2023-10-28T09:05:10.058Z,29.35
2023-10-28T09:07:36.937Z,26.00
2023-10-28T09:10:05.734Z,39.40
2023-10-28T09:12:33.510Z,26.88
2023-10-28T09:15:00.476Z,30.80
2023-10-28T09:17:27.488Z,28.73
2023-10-28T09:19:54.764Z,31.30
2023-10-28T09:22:24.282Z,30.80
2023-10-28T09:24:55.001Z,27.98
2023-10-28T09:27:22.357Z,35.92
2023-10-28T09:29:49.867Z,27.50
2023-10-28T09:32:19.686Z,34.75
2023-10-28T09:34:46.514Z,32.47
2023-10-28T09:37:14.136Z,29.33
2023-10-28T09:39:42.627Z,29.17
2023-10-28T09:42:11.129Z,27.80
2023-10-28T09:44:38.288Z,29.88
2023-10-28T09:47:06.814Z,33.83
2023-10-28T09:49:34.180Z,40.17
2023-10-28T09:52:14.260Z,26.80
2023-10-28T09:54:44.090Z,31.98
2023-10-28T09:57:12.206Z,30.02
2023-10-28T09:59:41.964Z,26.65
2023-10-28T10:02:40.676Z,33.75
2023-10-28T10:05:16.045Z,42.17
2023-10-28T10:07:43.341Z,44.60
2023-10-28T10:10:21.456Z,34.97
2023-10-28T10:12:55.474Z,41.22
2023-10-28T10:15:23.666Z,36.15
2023-10-28T10:18:11.879Z,31.15
2023-10-28T10:20:44.882Z,24.73
2023-10-28T10:23:11.882Z,28.55
2023-10-28T10:25:44.933Z,28.83
2023-10-28T10:28:16.405Z,32.65
2023-10-28T10:30:45.404Z,36.33
2023-10-28T10:33:13.918Z,28.52
2023-10-28T10:35:49.271Z,34.40
2023-10-28T10:40:43.000Z,41.63
2023-10-28T10:43:10.728Z,34.20
2023-10-28T10:45:38.580Z,35.17
2023-10-28T10:48:08.865Z,32.92
2023-10-28T10:50:36.566Z,33.15
2023-10-28T10:53:05.058Z,34.03
2023-10-28T10:55:32.431Z,37.47
2023-10-28T10:58:00.151Z,39.92
2023-10-28T11:00:27.717Z,62.05
2023-10-28T11:02:59.492Z,38.47
2023-10-28T11:05:31.754Z,38.22
2023-10-28T11:08:00.190Z,39.65
2023-10-28T11:10:27.977Z,41.90
2023-10-28T11:12:54.900Z,36.70
2023-10-28T11:15:22.993Z,39.97
2023-10-28T11:17:51.714Z,29.25
2023-10-28T11:20:22.546Z,49.83
2023-10-28T11:22:49.690Z,34.55
2023-10-28T11:25:16.850Z,41.78
2023-10-28T11:27:44.144Z,32.83
2023-10-28T11:30:11.772Z,33.42
2023-10-28T11:32:41.781Z,43.17
2023-10-28T11:35:13.009Z,39.50
2023-10-28T11:37:43.147Z,33.83
2023-10-28T11:40:11.609Z,41.78
2023-10-28T11:42:38.702Z,36.42
2023-10-28T11:45:10.897Z,38.58
2023-10-28T11:47:38.004Z,36.30
2023-10-28T11:50:07.323Z,35.58
2023-10-28T11:52:38.362Z,38.50
2023-10-28T11:55:09.193Z,38.28
2023-10-28T11:57:36.626Z,46.03
2023-10-28T12:00:05.959Z,39.47
2023-10-28T12:02:33.119Z,48.38
2023-10-28T12:04:59.995Z,34.17
2023-10-28T12:07:26.781Z,39.50
2023-10-28T12:09:53.638Z,39.15
2023-10-28T12:12:20.508Z,39.53
2023-10-28T12:14:47.412Z,42.05
2023-10-28T12:17:14.244Z,34.72
2023-10-28T12:19:43.769Z,29.30
2023-10-28T12:22:10.871Z,31.15
2023-10-28T12:24:37.752Z,33.45
2023-10-28T12:27:04.860Z,32.75
2023-10-28T12:29:31.671Z,29.50
2023-10-28T12:31:58.702Z,31.25
2023-10-28T12:34:25.601Z,31.25
2023-10-28T12:36:52.387Z,27.55
2023-10-28T12:39:19.469Z,29.27
2023-10-28T12:41:47.701Z,40.08
2023-10-28T12:44:14.619Z,36.15
2023-10-28T12:46:41.505Z,30.75
2023-10-28T12:49:08.380Z,55.80
2023-10-28T12:51:35.696Z,30.05
2023-10-28T12:54:02.878Z,35.95
2023-10-28T12:56:30.043Z,32.35
2023-10-28T12:58:57.315Z,28.30
2023-10-28T13:01:28.024Z,31.67
2023-10-28T13:03:57.944Z,29.75
2023-10-28T13:06:25.231Z,33.30
2023-10-28T13:08:52.447Z,32.40
2023-10-28T13:11:19.506Z,30.02
2023-10-28T13:13:46.954Z,38.83
2023-10-28T13:16:14.001Z,23.58
2023-10-28T13:18:40.871Z,38.40
2023-10-28T13:21:07.741Z,34.70
2023-10-28T13:23:34.605Z,28.05
2023-10-28T13:26:01.509Z,38.15
2023-10-28T13:28:28.989Z,31.35
2023-10-28T13:30:55.916Z,31.52
2023-10-28T13:33:23.082Z,35.95
2023-10-28T13:35:53.122Z,41.28
2023-10-28T13:38:19.988Z,39.83
2023-10-28T13:40:46.954Z,27.13
2023-10-28T13:43:13.957Z,27.92
2023-10-28T13:45:41.660Z,33.95
2023-10-28T13:48:08.553Z,38.90
2023-10-28T13:50:37.761Z,40.17
2023-10-28T13:53:05.845Z,29.67
2023-10-28T13:55:32.996Z,30.58
2023-10-28T13:57:59.945Z,33.22
2023-10-28T14:00:27.158Z,33.95
2023-10-28T14:02:54.293Z,33.40
2023-10-28T14:05:22.189Z,27.75
2023-10-28T14:07:49.356Z,26.80
2023-10-28T14:10:16.455Z,28.77
2023-10-28T14:12:46.192Z,23.65
2023-10-28T14:15:16.151Z,32.85
2023-10-28T14:17:43.098Z,31.42
2023-10-28T14:20:12.996Z,23.25
2023-10-28T14:22:40.141Z,30.70
2023-10-28T14:25:09.574Z,35.55
2023-10-28T14:27:36.924Z,31.77
2023-10-28T14:30:05.770Z,25.02
2023-10-28T14:32:32.886Z,34.45
2023-10-28T14:35:01.474Z,33.38
2023-10-28T14:37:28.441Z,29.63
2023-10-28T14:39:55.309Z,26.63
2023-10-28T14:42:24.391Z,27.58
2023-10-28T14:44:52.603Z,28.83
2023-10-28T14:47:19.534Z,29.98
2023-10-28T14:49:46.613Z,21.50
2023-10-28T14:52:13.522Z,32.33
2023-10-28T14:54:40.385Z,28.83
2023-10-28T14:57:07.336Z,27.67
2023-10-28T14:59:45.541Z,25.67
2023-10-28T15:02:16.549Z,28.98
2023-10-28T15:04:47.914Z,28.25
2023-10-28T15:07:15.261Z,37.08
2023-10-28T15:09:42.151Z,36.53
2023-10-28T15:12:09.073Z,26.92
2023-10-28T15:14:37.000Z,25.85
2023-10-28T15:17:04.266Z,31.13
2023-10-28T15:19:33.613Z,35.92
2023-10-28T15:22:01.497Z,31.55
2023-10-28T15:24:30.991Z,35.65
2023-10-28T15:26:57.949Z,30.23
2023-10-28T15:29:29.817Z,40.15
2023-10-28T15:31:56.636Z,30.25
2023-10-28T15:34:23.480Z,34.70
2023-10-28T15:36:50.329Z,34.20
2023-10-28T15:39:17.154Z,31.88
2023-10-28T15:41:44.535Z,32.30
2023-10-28T15:44:11.476Z,41.47
2023-10-28T15:46:38.348Z,28.50
2023-10-28T15:49:05.215Z,45.33
2023-10-28T15:51:32.754Z,44.30
2023-10-28T15:53:59.580Z,36.33
2023-10-28T15:56:26.410Z,32.72
2023-10-28T15:58:53.697Z,96.05
2023-10-28T16:01:21.702Z,43.95
2023-10-28T16:03:50.404Z,36.97
2023-10-28T16:06:17.361Z,32.55
2023-10-28T16:08:44.395Z,34.13
2023-10-28T16:11:14.390Z,37.97
2023-10-28T16:13:44.565Z,36.97
2023-10-28T16:16:13.122Z,34.40
2023-10-28T16:18:41.932Z,36.15
2023-10-28T16:21:09.920Z,30.80
2023-10-28T16:23:38.028Z,42.38
2023-10-28T16:26:05.146Z,36.85
2023-10-28T16:28:33.211Z,37.78
2023-10-28T16:31:00.302Z,39.38
2023-10-28T16:33:27.254Z,34.40
2023-10-28T16:35:54.297Z,37.50
2023-10-28T16:38:30.702Z,36.95
2023-10-28T16:40:59.480Z,37.85
2023-10-28T16:43:27.243Z,36.92
2023-10-28T16:46:04.044Z,36.03
2023-10-28T16:48:31.424Z,32.83
2023-10-28T16:51:01.103Z,37.55
2023-10-28T16:53:28.346Z,35.42
2023-10-28T16:56:06.077Z,34.42
2023-10-28T16:58:36.484Z,36.00
2023-10-28T17:01:04.993Z,31.25
2023-10-28T17:03:36.583Z,41.03
2023-10-28T17:06:06.453Z,40.80
2023-10-28T17:08:34.216Z,41.60
2023-10-28T17:11:03.556Z,39.08
2023-10-28T17:13:30.464Z,38.40
2023-10-28T17:15:58.335Z,36.63
2023-10-28T17:18:25.613Z,36.95
2023-10-28T17:20:52.633Z,43.95
2023-10-28T17:23:19.562Z,38.20
2023-10-28T17:25:46.458Z,43.15
2023-10-28T17:28:13.975Z,43.42
2023-10-28T17:30:41.631Z,43.70
2023-10-28T17:33:10.066Z,47.88
2023-10-28T17:35:37.193Z,53.00
2023-10-28T17:38:04.139Z,41.13
2023-10-28T17:40:31.758Z,55.45
2023-10-28T17:42:58.684Z,50.72
2023-10-28T17:45:27.435Z,57.10
2023-10-28T17:47:54.420Z,57.17
2023-10-28T17:50:22.376Z,59.20
2023-10-28T17:52:50.709Z,61.83
2023-10-28T17:55:17.660Z,60.17
2023-10-28T17:57:53.423Z,51.70
2023-10-28T18:00:22.625Z,54.47
2023-10-28T18:02:49.882Z,56.95
2023-10-28T18:05:16.862Z,73.88
2023-10-28T18:07:43.761Z,83.18
2023-10-28T18:10:10.640Z,62.45
2023-10-28T18:12:37.575Z,61.50
2023-10-28T18:15:04.702Z,71.63
2023-10-28T18:17:31.658Z,63.60
2023-10-28T18:19:58.729Z,50.50
2023-10-28T18:22:28.221Z,50.97
2023-10-28T18:24:55.085Z,53.63
2023-10-28T18:27:22.785Z,60.78
2023-10-28T18:29:49.910Z,57.85
2023-10-28T18:32:17.028Z,57.80
2023-10-28T18:34:47.370Z,52.80
2023-10-28T18:37:14.384Z,54.30
2023-10-28T18:39:41.269Z,54.90
2023-10-28T18:42:08.243Z,58.90
2023-10-28T18:44:35.154Z,58.45
2023-10-28T18:47:06.114Z,51.05
2023-10-28T18:49:33.483Z,54.45
2023-10-28T18:52:00.299Z,49.55
2023-10-28T18:54:28.049Z,68.97
2023-10-28T18:56:54.951Z,59.30
2023-10-28T18:59:21.787Z,55.63
2023-10-28T19:01:49.224Z,60.45
2023-10-28T19:04:16.189Z,58.90
2023-10-28T19:06:43.048Z,59.45
2023-10-28T19:09:11.932Z,55.42
2023-10-28T19:11:39.497Z,62.38
2023-10-28T19:14:09.538Z,52.88
2023-10-28T19:16:37.707Z,57.38
2023-10-28T19:19:05.579Z,57.80
2023-10-28T19:21:32.649Z,62.83
2023-10-28T19:23:59.631Z,59.67
2023-10-28T19:26:26.584Z,52.42
2023-10-28T19:28:53.427Z,59.35
2023-10-28T19:31:22.756Z,67.20
2023-10-28T19:33:49.751Z,59.38
2023-10-28T19:36:17.814Z,64.85
2023-10-28T19:38:45.035Z,63.72
2023-10-28T19:41:12.089Z,60.92
2023-10-28T19:43:38.944Z,58.28
2023-10-28T19:46:07.512Z,54.22
2023-10-28T19:48:34.817Z,54.80
2023-10-28T19:51:06.358Z,52.72
2023-10-28T19:53:37.434Z,58.17
2023-10-28T19:56:11.397Z,55.55
2023-10-28T19:58:47.705Z,64.72
2023-10-28T20:01:14.733Z,60.88
2023-10-28T20:03:41.941Z,64.35
2023-10-28T20:06:09.711Z,68.13
2023-10-28T20:08:37.757Z,55.40
2023-10-28T20:11:05.746Z,58.08
2023-10-28T20:13:32.934Z,57.42
2023-10-28T20:16:00.110Z,65.78
2023-10-28T20:18:27.201Z,74.20
2023-10-28T20:20:54.291Z,75.47
2023-10-28T20:23:21.137Z,68.13
2023-10-28T20:25:47.993Z,58.55
2023-10-28T20:28:14.820Z,71.47
2023-10-28T20:30:42.331Z,69.20
2023-10-28T20:33:09.643Z,59.17
2023-10-28T20:35:37.089Z,73.25
2023-10-28T20:38:04.046Z,75.72
2023-10-28T20:40:30.862Z,66.13
2023-10-28T20:42:57.710Z,67.85
2023-10-28T20:45:25.058Z,71.28
2023-10-28T20:47:52.877Z,65.45
2023-10-28T20:50:19.953Z,70.22
2023-10-28T20:52:46.869Z,56.08
2023-10-28T20:55:13.714Z,64.72
2023-10-28T20:57:40.640Z,76.90
2023-10-28T21:00:09.343Z,64.07
2023-10-28T21:02:36.418Z,57.10
2023-10-28T21:05:03.435Z,59.25
2023-10-28T21:07:30.402Z,69.32
2023-10-28T21:09:57.252Z,61.38
2023-10-28T21:12:24.119Z,63.47
2023-10-28T21:14:51.017Z,56.85
2023-10-28T21:17:17.896Z,65.05
2023-10-28T21:19:44.762Z,56.28
2023-10-28T21:22:11.554Z,64.25
2023-10-28T21:24:38.493Z,61.15
2023-10-28T21:27:05.952Z,57.78
2023-10-28T21:29:32.949Z,56.15
2023-10-28T21:32:02.303Z,53.97
2023-10-28T21:34:29.215Z,44.90
2023-10-28T21:36:56.425Z,47.35
2023-10-28T21:39:23.595Z,56.85
2023-10-28T21:41:50.535Z,50.58
2023-10-28T21:44:18.482Z,45.90
2023-10-28T21:46:45.667Z,55.58
2023-10-28T21:49:12.690Z,48.00
2023-10-28T21:51:39.592Z,45.33
2023-10-28T21:54:06.809Z,57.53
2023-10-28T21:56:33.759Z,54.05
2023-10-28T21:59:00.656Z,43.92
2023-10-28T22:01:28.513Z,54.53
2023-10-28T22:03:55.815Z,56.70
2023-10-28T22:06:22.941Z,56.00
2023-10-28T22:08:50.055Z,53.50
2023-10-28T22:11:17.003Z,54.85
2023-10-28T22:13:43.902Z,57.47
2023-10-28T22:16:10.832Z,60.08
2023-10-28T22:18:37.692Z,64.70
2023-10-28T22:21:05.271Z,56.17
2023-10-28T22:23:32.861Z,56.70
2023-10-28T22:26:00.991Z,59.05
2023-10-28T22:28:27.943Z,61.80
2023-10-28T22:30:55.985Z,59.90
2023-10-28T22:33:22.991Z,51.70
2023-10-28T22:35:49.862Z,63.40
2023-10-28T22:38:16.703Z,59.92
2023-10-28T22:40:44.583Z,61.00
2023-10-28T22:43:11.594Z,59.90
2023-10-28T22:45:38.654Z,65.38
2023-10-28T22:48:06.465Z,69.35
2023-10-28T22:50:33.442Z,60.67
2023-10-28T22:53:00.310Z,71.85
2023-10-28T22:55:27.609Z,62.38
2023-10-28T22:57:54.614Z,64.18
2023-10-28T23:00:21.493Z,59.30
2023-10-28T23:02:48.469Z,56.03
2023-10-28T23:05:15.416Z,59.42
2023-10-28T23:07:42.700Z,67.07
2023-10-28T23:10:11.641Z,59.20
2023-10-28T23:12:38.744Z,73.03
2023-10-28T23:15:06.752Z,60.38
2023-10-28T23:17:34.007Z,60.90
2023-10-28T23:20:01.037Z,68.82
2023-10-28T23:22:28.004Z,61.60
2023-10-28T23:24:54.889Z,57.88
2023-10-28T23:27:21.836Z,59.35
2023-10-28T23:29:48.694Z,64.47
2023-10-28T23:32:15.554Z,60.88
2023-10-28T23:34:42.432Z,65.22
2023-10-28T23:37:09.360Z,57.95
2023-10-28T23:39:36.234Z,70.00
2023-10-28T23:42:03.795Z,76.47
2023-10-28T23:44:30.849Z,66.45
2023-10-28T23:46:57.743Z,57.75
2023-10-28T23:49:24.543Z,61.72
2023-10-28T23:51:51.402Z,62.95
2023-10-28T23:54:18.197Z,66.40
2023-10-28T23:56:45.053Z,56.13
2023-10-28T23:59:11.918Z,59.03
